Time;durP1;ratioP1;P1;durP2;ratioP2;P2;SDS_P1;SDS_P2;PMS_P1;PMS_P2;Temp;Humidity;BMP_temperature;BMP_pressure;BME280_temperature;BME280_humidity;BME280_pressure;Samples;Min_cycle;Max_cycle;Signal;HPM_P1;HPM_P2
2022/03/09 00:02:15;;;;;;;;;;;3.40;99.90;;;;;;5071225;28;19931;-61
2022/03/09 00:04:41;;;;;;;;;;;3.30;99.90;;;;;;5071242;28;20000;-60
2022/03/09 00:07:06;;;;;;;;;;;3.30;99.90;;;;;;5072017;28;19998;-63
2022/03/09 00:09:32;;;;;;;;;;;3.30;99.90;;;;;;5054620;28;20313;-60
2022/03/09 00:11:58;;;;;;;;;;;3.20;99.90;;;;;;5071971;28;19932;-60
2022/03/09 00:14:23;;;;;;;;;;;3.20;99.90;;;;;;5072008;28;20266;-59
2022/03/09 00:16:50;;;;;;;;;;;3.20;99.90;;;;;;5072260;28;20368;-60
2022/03/09 00:19:16;;;;;;;;;;;3.20;99.90;;;;;;5071920;28;20058;-60
2022/03/09 00:21:41;;;;;;;;;;;3.10;99.90;;;;;;5072298;28;20013;-60
2022/03/09 00:24:07;;;;;;;;;;;3.60;99.90;;;;;;5104531;28;20293;-61
2022/03/09 00:26:33;;;;;;;;;;;3.30;99.90;;;;;;5072290;28;19925;-61
2022/03/09 00:28:58;;;;;;;;;;;3.10;99.90;;;;;;5071764;28;19928;-60
2022/03/09 00:31:24;;;;;;;;;;;3.10;99.90;;;;;;5072260;28;20023;-61
2022/03/09 00:33:50;;;;;;;;;;;3.10;99.90;;;;;;5071168;28;19932;-66
2022/03/09 00:36:15;;;;;;;;;;;3.10;99.90;;;;;;5071168;28;19932;-60
2022/03/09 00:38:41;;;;;;;;;;;3.10;99.90;;;;;;5070913;28;19924;-63
2022/03/09 00:41:06;;;;;;;;;;;3.10;99.90;;;;;;5071567;28;19970;-61
2022/03/09 00:43:32;;;;;;;;;;;3.00;99.90;;;;;;5071915;28;19931;-61
2022/03/09 00:45:58;;;;;;;;;;;3.10;99.90;;;;;;5069852;28;20289;-64
2022/03/09 00:48:23;;;;;;;;;;;3.00;99.90;;;;;;5071973;28;19928;-61
2022/03/09 00:50:49;;;;;;;;;;;3.00;99.90;;;;;;5071890;28;19931;-61
2022/03/09 00:53:14;;;;;;;;;;;2.90;99.90;;;;;;5071444;28;19924;-60
2022/03/09 00:55:40;;;;;;;;;;;2.90;99.90;;;;;;5070427;28;19929;-60
2022/03/09 00:58:06;;;;;;;;;;;2.90;99.90;;;;;;5070517;28;20324;-60
2022/03/09 01:00:32;;;;;;;;;;;2.80;99.90;;;;;;5071555;28;19925;-63
2022/03/09 01:02:57;;;;;;;;;;;2.80;99.90;;;;;;5070170;28;19932;-68
2022/03/09 01:05:23;;;;;;;;;;;2.80;99.90;;;;;;5071632;28;20342;-60
2022/03/09 01:07:48;;;;;;;;;;;2.70;99.90;;;;;;5071700;28;19924;-60
2022/03/09 01:10:14;;;;;;;;;;;2.70;99.90;;;;;;5070954;28;19948;-61
2022/03/09 01:12:40;;;;;;;;;;;2.70;99.90;;;;;;5071532;28;20015;-60
2022/03/09 01:15:06;;;;;;;;;;;2.70;99.90;;;;;;5071170;28;20027;-60
2022/03/09 01:17:32;;;;;;;;;;;2.60;99.90;;;;;;5070703;28;19924;-61
2022/03/09 01:19:58;;;;;;;;;;;2.60;99.90;;;;;;5071638;28;19928;-63
2022/03/09 01:22:23;;;;;;;;;;;2.60;99.90;;;;;;5071174;28;19947;-60
2022/03/09 01:24:49;;;;;;;;;;;2.60;99.90;;;;;;5053434;28;19924;-60
2022/03/09 01:27:15;;;;;;;;;;;2.60;99.90;;;;;;5071111;28;19928;-60
2022/03/09 01:29:40;;;;;;;;;;;2.80;99.90;;;;;;5071473;28;20015;-61
2022/03/09 01:32:06;;;;;;;;;;;2.50;99.90;;;;;;5070754;28;20011;-60
2022/03/09 01:34:32;;;;;;;;;;;2.50;99.90;;;;;;5071208;28;19946;-60
2022/03/09 01:36:57;;;;;;;;;;;2.50;99.90;;;;;;5071179;28;19924;-60
2022/03/09 01:39:23;;;;;;;;;;;2.50;99.90;;;;;;5071074;28;20366;-60
2022/03/09 01:41:49;;;;;;;;;;;2.70;99.90;;;;;;5071518;28;19921;-61
2022/03/09 01:44:16;;;;;;;;;;;2.50;99.90;;;;;;5070698;28;20374;-60
2022/03/09 01:46:42;;;;;;;;;;;2.50;99.90;;;;;;5071160;28;19924;-60
2022/03/09 01:49:09;;;;;;;;;;;2.50;99.90;;;;;;5074752;28;20055;-61
2022/03/09 01:51:35;;;;;;;;;;;2.50;99.90;;;;;;5074161;28;19932;-61
2022/03/09 01:54:02;;;;;;;;;;;2.40;99.90;;;;;;5075142;28;20235;-61
2022/03/09 01:56:28;;;;;;;;;;;2.40;99.90;;;;;;5074615;28;20397;-63
2022/03/09 01:58:54;;;;;;;;;;;2.40;99.90;;;;;;5074913;28;19978;-61
2022/03/09 02:01:19;;;;;;;;;;;2.40;99.90;;;;;;5073615;28;19925;-61
2022/03/09 02:03:45;;;;;;;;;;;2.40;99.90;;;;;;5074632;28;19928;-61
2022/03/09 02:06:10;;;;;;;;;;;2.30;99.90;;;;;;5106900;28;19924;-61
2022/03/09 02:11:20;;;;;;;;;;;2.30;99.90;;;;;;5074427;28;20017;-60
2022/03/09 02:13:46;;;;;;;;;;;2.30;99.90;;;;;;5074751;28;19928;-61
2022/03/09 02:16:15;;;;;;;;;;;2.30;99.90;;;;;;5074239;28;19930;-61
2022/03/09 02:18:41;;;;;;;;;;;2.30;99.90;;;;;;5074644;28;19964;-61
2022/03/09 02:21:08;;;;;;;;;;;2.30;99.90;;;;;;5073240;28;19977;-66
2022/03/09 02:23:34;;;;;;;;;;;2.20;99.90;;;;;;5056624;28;19928;-63
2022/03/09 02:25:59;;;;;;;;;;;2.20;99.90;;;;;;5074276;28;20232;-61
2022/03/09 02:28:25;;;;;;;;;;;2.40;99.90;;;;;;5073123;28;20024;-60
2022/03/09 02:30:54;;;;;;;;;;;2.20;99.90;;;;;;5074264;28;19970;-60
2022/03/09 02:33:20;;;;;;;;;;;2.10;99.90;;;;;;5073968;28;19932;-61
2022/03/09 02:35:45;;;;;;;;;;;2.10;99.90;;;;;;5074315;28;20289;-60
2022/03/09 02:38:11;;;;;;;;;;;2.10;99.90;;;;;;5073992;28;20303;-60
2022/03/09 02:40:37;;;;;;;;;;;2.10;99.90;;;;;;5056483;28;20397;-60
2022/03/09 02:43:02;;;;;;;;;;;2.10;99.90;;;;;;5072794;28;19932;-60
2022/03/09 02:45:28;;;;;;;;;;;2.10;99.90;;;;;;5073652;28;19931;-60
2022/03/09 02:47:53;;;;;;;;;;;2.10;99.90;;;;;;5073863;28;20023;-61
2022/03/09 02:50:19;;;;;;;;;;;2.00;99.90;;;;;;5073433;28;20295;-60
2022/03/09 02:52:44;;;;;;;;;;;2.00;99.90;;;;;;5072721;28;19932;-61
2022/03/09 02:55:10;;;;;;;;;;;2.00;99.90;;;;;;5072458;28;19924;-61
2022/03/09 02:57:36;;;;;;;;;;;2.00;99.90;;;;;;5072919;28;20011;-60
2022/03/09 03:00:07;;;;;;;;;;;2.00;99.90;;;;;;5072721;28;20258;-61
2022/03/09 03:02:34;;;;;;;;;;;2.00;99.90;;;;;;5073207;28;20444;-62
2022/03/09 03:04:59;;;;;;;;;;;2.10;99.90;;;;;;5073675;28;19929;-61
2022/03/09 03:07:27;;;;;;;;;;;2.00;99.90;;;;;;5072649;28;20189;-61
2022/03/09 03:09:52;;;;;;;;;;;1.90;99.90;;;;;;5073647;28;19925;-62
2022/03/09 03:12:18;;;;;;;;;;;1.90;99.90;;;;;;5073200;28;19982;-60
2022/03/09 03:14:43;;;;;;;;;;;1.90;99.90;;;;;;5073619;28;19929;-60
2022/03/09 03:17:09;;;;;;;;;;;1.90;99.90;;;;;;5073413;28;19924;-61
2022/03/09 03:19:35;;;;;;;;;;;1.90;99.90;;;;;;5073100;28;20362;-60
2022/03/09 03:22:00;;;;;;;;;;;1.90;99.90;;;;;;5071615;28;20290;-61
2022/03/09 03:24:28;;;;;;;;;;;1.80;99.90;;;;;;5071548;28;19971;-61
2022/03/09 03:26:53;;;;;;;;;;;1.80;99.90;;;;;;5072009;28;20145;-60
2022/03/09 03:29:19;;;;;;;;;;;1.80;99.90;;;;;;5072902;28;20032;-61
2022/03/09 03:31:44;;;;;;;;;;;1.80;99.90;;;;;;5073205;28;20011;-61
2022/03/09 03:34:10;;;;;;;;;;;1.80;99.90;;;;;;5072953;28;20274;-61
2022/03/09 03:36:36;;;;;;;;;;;1.70;99.90;;;;;;5071519;28;19972;-61
2022/03/09 03:39:02;;;;;;;;;;;2.10;99.90;;;;;;5072736;28;19924;-60
2022/03/09 03:41:28;;;;;;;;;;;2.30;99.90;;;;;;5071675;28;20019;-62
2022/03/09 03:43:54;;;;;;;;;;;1.70;99.90;;;;;;5071536;28;19935;-61
2022/03/09 03:46:19;;;;;;;;;;;1.70;99.90;;;;;;5072661;28;19925;-61
2022/03/09 03:48:45;;;;;;;;;;;1.70;99.90;;;;;;5071516;28;19931;-60
2022/03/09 03:51:11;;;;;;;;;;;1.70;99.90;;;;;;5055045;28;19936;-60
2022/03/09 03:53:36;;;;;;;;;;;1.70;99.90;;;;;;5072394;28;20369;-61
2022/03/09 03:56:02;;;;;;;;;;;1.70;99.90;;;;;;5072618;28;19935;-61
2022/03/09 03:58:27;;;;;;;;;;;1.70;99.90;;;;;;5072264;28;19925;-61
2022/03/09 04:00:53;;;;;;;;;;;1.70;99.90;;;;;;5071633;28;19924;-61
2022/03/09 04:03:19;;;;;;;;;;;1.70;99.90;;;;;;5071510;28;19921;-60
2022/03/09 04:05:44;;;;;;;;;;;1.60;99.90;;;;;;5072253;28;19948;-60
2022/03/09 04:08:10;;;;;;;;;;;1.60;99.90;;;;;;5072462;28;20022;-60
2022/03/09 04:10:35;;;;;;;;;;;1.60;99.90;;;;;;5070309;28;19925;-61
2022/03/09 04:13:03;;;;;;;;;;;1.60;99.90;;;;;;5071187;28;19924;-61
2022/03/09 04:15:32;;;;;;;;;;;1.70;99.90;;;;;;5071557;28;20297;-61
2022/03/09 04:17:58;;;;;;;;;;;1.60;99.90;;;;;;5072106;28;19931;-61
2022/03/09 04:20:24;;;;;;;;;;;1.50;99.90;;;;;;5071535;28;20455;-60
2022/03/09 04:22:50;;;;;;;;;;;1.50;99.90;;;;;;5072296;28;19924;-60
2022/03/09 04:25:15;;;;;;;;;;;1.50;99.90;;;;;;5072176;28;19924;-61
2022/03/09 04:27:41;;;;;;;;;;;1.40;99.90;;;;;;5071809;28;20373;-60
2022/03/09 04:30:08;;;;;;;;;;;1.40;99.90;;;;;;5071170;28;19924;-61
2022/03/09 04:32:34;;;;;;;;;;;1.40;99.90;;;;;;5054097;28;20023;-61
2022/03/09 04:35:00;;;;;;;;;;;1.40;99.90;;;;;;5071041;28;19946;-61
2022/03/09 04:37:30;;;;;;;;;;;1.40;99.90;;;;;;5070445;28;19982;-61
2022/03/09 04:39:58;;;;;;;;;;;1.40;99.90;;;;;;5071782;28;19978;-63
2022/03/09 04:42:25;;;;;;;;;;;1.30;99.90;;;;;;5072150;28;19928;-68
2022/03/09 04:44:51;;;;;;;;;;;1.30;99.90;;;;;;5071916;28;19921;-60
2022/03/09 04:47:16;;;;;;;;;;;1.30;99.90;;;;;;5071586;28;19978;-60
2022/03/09 04:49:42;;;;;;;;;;;1.30;99.90;;;;;;5071220;28;19924;-61
2022/03/09 04:52:07;;;;;;;;;;;1.80;99.90;;;;;;5070947;28;19924;-63
2022/03/09 04:54:33;;;;;;;;;;;1.30;99.90;;;;;;5071816;28;19929;-61
2022/03/09 04:56:59;;;;;;;;;;;1.30;99.90;;;;;;5071773;28;19927;-60
2022/03/09 04:59:24;;;;;;;;;;;1.30;99.90;;;;;;5070509;28;19928;-60
2022/03/09 05:01:50;;;;;;;;;;;1.30;99.90;;;;;;5070549;28;19924;-61
2022/03/09 05:04:16;;;;;;;;;;;1.30;99.90;;;;;;5070664;28;20002;-60
2022/03/09 05:06:41;;;;;;;;;;;1.30;99.90;;;;;;5104024;28;19921;-62
2022/03/09 05:09:07;;;;;;;;;;;1.40;99.90;;;;;;5070265;28;20084;-62
2022/03/09 05:11:32;;;;;;;;;;;1.30;99.90;;;;;;5104116;28;20059;-60
2022/03/09 05:13:58;;;;;;;;;;;1.30;99.90;;;;;;5070663;28;20068;-60
2022/03/09 05:16:23;;;;;;;;;;;1.20;99.90;;;;;;5070159;28;19982;-61
2022/03/09 05:18:49;;;;;;;;;;;1.20;99.90;;;;;;5071175;28;19925;-61
2022/03/09 05:21:15;;;;;;;;;;;1.20;99.90;;;;;;5073746;28;20443;-60
2022/03/09 05:23:40;;;;;;;;;;;1.20;99.90;;;;;;5075312;28;19947;-60
2022/03/09 05:26:06;;;;;;;;;;;1.60;99.90;;;;;;5075466;28;19924;-61
2022/03/09 05:28:31;;;;;;;;;;;1.20;99.90;;;;;;5074169;28;19931;-61
2022/03/09 05:30:57;;;;;;;;;;;1.20;99.90;;;;;;5075414;28;20378;-60
2022/03/09 05:33:23;;;;;;;;;;;1.20;99.90;;;;;;5075395;28;19928;-60
2022/03/09 05:35:48;;;;;;;;;;;1.20;99.90;;;;;;5073936;28;19936;-59
2022/03/09 05:38:14;;;;;;;;;;;1.10;99.90;;;;;;5057707;28;19924;-62
2022/03/09 05:40:40;;;;;;;;;;;1.10;99.90;;;;;;5074654;28;19925;-60
2022/03/09 05:43:05;;;;;;;;;;;1.10;99.90;;;;;;5108116;28;19925;-61
2022/03/09 05:45:31;;;;;;;;;;;1.00;99.90;;;;;;5075221;28;19939;-60
2022/03/09 05:47:56;;;;;;;;;;;1.00;99.90;;;;;;5075065;28;19925;-60
2022/03/09 05:50:22;;;;;;;;;;;1.00;99.90;;;;;;5057166;28;19924;-60
2022/03/09 05:52:48;;;;;;;;;;;1.00;99.90;;;;;;5074703;28;19924;-59
2022/03/09 05:55:14;;;;;;;;;;;1.00;99.90;;;;;;5073760;28;19928;-62
2022/03/09 05:57:39;;;;;;;;;;;1.10;99.90;;;;;;5074261;28;19944;-62
2022/03/09 06:00:06;;;;;;;;;;;1.00;99.90;;;;;;5074409;28;19924;-63
2022/03/09 06:02:32;;;;;;;;;;;1.00;99.90;;;;;;5073467;28;19924;-61
2022/03/09 06:04:57;;;;;;;;;;;1.00;99.90;;;;;;5072964;28;20203;-60
2022/03/09 06:07:23;;;;;;;;;;;1.30;99.90;;;;;;5074265;28;19928;-60
2022/03/09 06:09:49;;;;;;;;;;;1.10;99.90;;;;;;5074127;28;19924;-60
2022/03/09 06:12:15;;;;;;;;;;;1.20;99.90;;;;;;5074607;28;19931;-61
2022/03/09 06:14:41;;;;;;;;;;;1.30;99.90;;;;;;5074342;28;19932;-61
2022/03/09 06:17:06;;;;;;;;;;;1.00;99.90;;;;;;5074482;28;19931;-61
2022/03/09 06:19:32;;;;;;;;;;;1.10;99.90;;;;;;5073183;28;19925;-63
2022/03/09 06:21:57;;;;;;;;;;;0.90;99.90;;;;;;5074289;28;20024;-60
2022/03/09 06:24:23;;;;;;;;;;;0.90;99.90;;;;;;5073441;28;19985;-60
2022/03/09 06:26:49;;;;;;;;;;;0.90;99.90;;;;;;5074208;28;19926;-60
2022/03/09 06:29:15;;;;;;;;;;;0.90;99.90;;;;;;5074232;28;19928;-61
2022/03/09 06:31:42;;;;;;;;;;;0.90;99.90;;;;;;5072254;28;19967;-62
2022/03/09 06:34:08;;;;;;;;;;;0.90;99.90;;;;;;5073530;28;19925;-61
2022/03/09 06:36:34;;;;;;;;;;;0.90;99.90;;;;;;5074254;28;20388;-60
2022/03/09 06:38:59;;;;;;;;;;;0.90;99.90;;;;;;5073705;28;19925;-60
2022/03/09 06:41:25;;;;;;;;;;;1.30;99.90;;;;;;5074056;28;20350;-60
2022/03/09 06:43:51;;;;;;;;;;;0.90;99.90;;;;;;5073723;28;19931;-61
2022/03/09 06:46:16;;;;;;;;;;;1.00;99.90;;;;;;5074060;28;19979;-61
2022/03/09 06:48:42;;;;;;;;;;;1.00;99.90;;;;;;5072283;28;19973;-60
2022/03/09 06:51:08;;;;;;;;;;;1.00;99.90;;;;;;5073811;28;19932;-61
2022/03/09 06:53:33;;;;;;;;;;;1.00;99.90;;;;;;5072711;28;19977;-60
2022/03/09 06:55:59;;;;;;;;;;;1.10;99.90;;;;;;5073292;28;19928;-59
2022/03/09 06:58:24;;;;;;;;;;;1.10;99.90;;;;;;5072186;28;19936;-59
2022/03/09 07:00:50;;;;;;;;;;;1.10;99.90;;;;;;5071572;28;19928;-61
2022/03/09 07:03:16;;;;;;;;;;;1.10;99.90;;;;;;5071717;28;19931;-60
2022/03/09 07:05:42;;;;;;;;;;;1.20;99.90;;;;;;5072390;28;20420;-60
2022/03/09 07:08:08;;;;;;;;;;;1.30;99.90;;;;;;5071968;28;19931;-63
2022/03/09 07:10:33;;;;;;;;;;;1.40;99.90;;;;;;5071672;28;19969;-60
2022/03/09 07:12:59;;;;;;;;;;;1.50;99.90;;;;;;5071969;28;20313;-61
2022/03/09 07:15:24;;;;;;;;;;;1.70;99.90;;;;;;5071955;28;19978;-59
2022/03/09 07:17:50;;;;;;;;;;;1.80;99.90;;;;;;5073087;28;19924;-61
2022/03/09 07:20:16;;;;;;;;;;;2.30;99.90;;;;;;5073088;28;19931;-60
2022/03/09 07:22:43;;;;;;;;;;;3.10;99.90;;;;;;5072143;28;20003;-60
2022/03/09 07:25:09;;;;;;;;;;;3.70;99.90;;;;;;5072973;28;19944;-62
2022/03/09 07:27:34;;;;;;;;;;;4.30;99.90;;;;;;5073148;28;19924;-59
2022/03/09 07:30:00;;;;;;;;;;;4.90;99.90;;;;;;5072856;28;19948;-60
2022/03/09 07:32:26;;;;;;;;;;;5.80;99.90;;;;;;5071980;28;20046;-60
2022/03/09 07:34:51;;;;;;;;;;;6.50;99.90;;;;;;5071665;28;20095;-60
2022/03/09 07:37:17;;;;;;;;;;;7.20;99.90;;;;;;5071453;28;19931;-60
2022/03/09 07:39:43;;;;;;;;;;;7.80;99.90;;;;;;5072855;28;19925;-61
2022/03/09 07:42:08;;;;;;;;;;;8.40;97.00;;;;;;5072524;28;19920;-60
2022/03/09 07:44:34;;;;;;;;;;;8.70;96.40;;;;;;5071737;28;19924;-60
2022/03/09 07:46:59;;;;;;;;;;;9.20;94.70;;;;;;5071485;28;19993;-60
2022/03/09 07:49:25;;;;;;;;;;;9.80;94.00;;;;;;5072757;28;20307;-60
2022/03/09 07:51:51;;;;;;;;;;;10.20;93.10;;;;;;5054665;28;20015;-60
2022/03/09 07:54:17;;;;;;;;;;;10.60;92.10;;;;;;5072986;28;20361;-60
2022/03/09 07:56:42;;;;;;;;;;;11.00;89.80;;;;;;5071247;28;19932;-63
2022/03/09 07:59:10;;;;;;;;;;;11.40;84.10;;;;;;5071654;28;20343;-62
2022/03/09 08:01:37;;;;;;;;;;;11.60;83.60;;;;;;5071550;28;20332;-60
2022/03/09 08:04:03;;;;;;;;;;;11.60;80.70;;;;;;5072122;28;19932;-62
2022/03/09 08:06:29;;;;;;;;;;;12.00;81.00;;;;;;5072186;28;20316;-61
2022/03/09 08:08:54;;;;;;;;;;;12.10;77.30;;;;;;5072091;28;19924;-61
2022/03/09 08:11:20;;;;;;;;;;;12.30;74.60;;;;;;5072484;28;19975;-61
2022/03/09 08:13:46;;;;;;;;;;;12.70;75.50;;;;;;5071158;28;20262;-60
2022/03/09 08:16:11;;;;;;;;;;;12.90;73.50;;;;;;5070842;28;19932;-61
2022/03/09 08:18:38;;;;;;;;;;;13.10;72.90;;;;;;5105187;28;19932;-63
2022/03/09 08:21:03;;;;;;;;;;;13.30;72.20;;;;;;5071142;28;20290;-62
2022/03/09 08:23:29;;;;;;;;;;;13.60;70.40;;;;;;5071134;28;19924;-61
2022/03/09 08:25:54;;;;;;;;;;;13.60;69.40;;;;;;5071733;28;19924;-61
2022/03/09 08:28:20;;;;;;;;;;;13.70;67.30;;;;;;5054586;28;19924;-62
2022/03/09 08:30:46;;;;;;;;;;;14.10;68.30;;;;;;5072284;28;19924;-63
2022/03/09 08:33:11;;;;;;;;;;;14.30;66.80;;;;;;5071276;28;19920;-62
2022/03/09 08:35:38;;;;;;;;;;;14.40;66.90;;;;;;5053845;28;19928;-59
2022/03/09 08:38:04;;;;;;;;;;;14.70;66.60;;;;;;5071584;28;20036;-62
2022/03/09 08:40:29;;;;;;;;;;;15.00;64.90;;;;;;5053849;28;20027;-62
2022/03/09 08:42:55;;;;;;;;;;;15.30;65.10;;;;;;5068969;28;19925;-69
2022/03/09 08:45:21;;;;;;;;;;;15.40;64.10;;;;;;5069474;28;20325;-60
2022/03/09 08:47:47;;;;;;;;;;;15.70;63.50;;;;;;5071496;28;19924;-61
2022/03/09 08:50:12;;;;;;;;;;;15.90;61.60;;;;;;5070142;28;19925;-61
2022/03/09 08:52:38;;;;;;;;;;;15.80;60.00;;;;;;5071507;28;19932;-63
2022/03/09 08:55:04;;;;;;;;;;;15.90;60.40;;;;;;5070861;28;19935;-62
2022/03/09 08:57:30;;;;;;;;;;;15.90;61.10;;;;;;5070318;28;20007;-62
2022/03/09 08:59:57;;;;;;;;;;;16.00;60.50;;;;;;5070507;28;20016;-63
2022/03/09 09:02:23;;;;;;;;;;;16.10;61.40;;;;;;5070106;28;19924;-62
2022/03/09 09:04:49;;;;;;;;;;;16.20;60.00;;;;;;5052965;28;19928;-62
2022/03/09 09:07:15;;;;;;;;;;;16.20;59.80;;;;;;5068980;28;19974;-62
2022/03/09 09:09:40;;;;;;;;;;;16.10;59.00;;;;;;5071212;28;19932;-62
2022/03/09 09:12:06;;;;;;;;;;;16.00;59.20;;;;;;5070072;28;20317;-61
2022/03/09 09:14:32;;;;;;;;;;;16.40;60.70;;;;;;5069684;28;20019;-61
2022/03/09 09:16:57;;;;;;;;;;;16.60;59.20;;;;;;5071228;28;19925;-60
2022/03/09 09:19:23;;;;;;;;;;;16.00;58.90;;;;;;5070929;28;19948;-60
2022/03/09 09:21:49;;;;;;;;;;;15.20;60.20;;;;;;5070007;28;19932;-60
2022/03/09 09:24:15;;;;;;;;;;;14.10;60.30;;;;;;5066017;28;19931;-63
2022/03/09 09:26:40;;;;;;;;;;;13.30;61.10;;;;;;5069477;28;19928;-65
2022/03/09 09:29:09;;;;;;;;;;;12.90;62.60;;;;;;5070864;28;19934;-60
2022/03/09 09:31:35;;;;;;;;;;;12.50;62.90;;;;;;5070938;28;19924;-61
2022/03/09 09:34:02;;;;;;;;;;;12.30;63.60;;;;;;5070049;28;19932;-67
2022/03/09 09:36:28;;;;;;;;;;;12.10;64.70;;;;;;5070509;28;20023;-61
2022/03/09 09:38:54;;;;;;;;;;;12.00;65.40;;;;;;5070677;28;20007;-61
2022/03/09 09:41:24;;;;;;;;;;;12.00;66.40;;;;;;5069403;28;19930;-62
2022/03/09 09:43:50;;;;;;;;;;;11.90;65.70;;;;;;5071310;28;19925;-61
2022/03/09 09:46:16;;;;;;;;;;;11.60;66.00;;;;;;5070288;28;19924;-63
2022/03/09 09:48:45;;;;;;;;;;;11.30;67.20;;;;;;5070886;28;19924;-60
2022/03/09 09:51:12;;;;;;;;;;;11.30;66.90;;;;;;5070069;28;19977;-63
2022/03/09 09:53:44;;;;;;;;;;;11.30;67.40;;;;;;5070112;28;19932;-61
2022/03/09 09:56:10;;;;;;;;;;;11.30;67.70;;;;;;5070571;28;19924;-61
2022/03/09 09:58:36;;;;;;;;;;;11.00;68.60;;;;;;5071619;28;19932;-63
2022/03/09 10:01:02;;;;;;;;;;;11.10;69.50;;;;;;5070991;28;20011;-62
2022/03/09 10:03:28;;;;;;;;;;;11.10;68.70;;;;;;5070873;28;20397;-61
2022/03/09 10:05:53;;;;;;;;;;;11.10;69.00;;;;;;5070960;28;19928;-61
2022/03/09 10:08:19;;;;;;;;;;;10.90;69.20;;;;;;5072962;28;19931;-61
2022/03/09 10:11:05;;;;;;;;;;;11.00;69.50;;;;;;5074299;28;20270;-61
2022/03/09 10:13:30;;;;;;;;;;;10.90;69.40;;;;;;5074090;28;19929;-62
2022/03/09 10:16:21;;;;;;;;;;;10.90;69.70;;;;;;5074468;28;20327;-61
2022/03/09 10:18:54;;;;;;;;;;;10.80;70.70;;;;;;5074467;28;19934;-64
2022/03/09 10:21:28;;;;;;;;;;;10.80;69.90;;;;;;5073081;28;20365;-61
2022/03/09 10:23:55;;;;;;;;;;;10.70;69.90;;;;;;5074129;28;19929;-61
2022/03/09 10:26:30;;;;;;;;;;;10.80;69.90;;;;;;5073623;28;20477;-62
2022/03/09 10:28:56;;;;;;;;;;;10.80;69.10;;;;;;5072961;28;19940;-62
2022/03/09 10:31:35;;;;;;;;;;;10.70;69.40;;;;;;5074129;28;19924;-61
2022/03/09 10:34:18;;;;;;;;;;;10.70;69.60;;;;;;5072770;28;20025;-60
2022/03/09 10:36:54;;;;;;;;;;;10.80;70.40;;;;;;5073412;28;19932;-60
2022/03/09 10:39:20;;;;;;;;;;;10.90;68.90;;;;;;5073531;28;19924;-61
2022/03/09 10:41:46;;;;;;;;;;;11.00;67.60;;;;;;5073976;28;19931;-60
2022/03/09 10:44:12;;;;;;;;;;;11.10;68.00;;;;;;5072354;28;20141;-64
2022/03/09 10:46:56;;;;;;;;;;;11.00;67.30;;;;;;5073888;28;20015;-61
2022/03/09 10:49:24;;;;;;;;;;;11.00;67.60;;;;;;5073604;28;20023;-63
2022/03/09 10:51:51;;;;;;;;;;;10.90;68.30;;;;;;5073452;28;19924;-62
2022/03/09 10:54:22;;;;;;;;;;;10.80;68.40;;;;;;5073527;28;20282;-61
2022/03/09 10:56:47;;;;;;;;;;;10.80;68.60;;;;;;5073105;28;19970;-62
2022/03/09 10:59:14;;;;;;;;;;;10.70;68.60;;;;;;5073115;28;19929;-61
2022/03/09 11:01:40;;;;;;;;;;;10.80;69.00;;;;;;5072166;28;20381;-61
2022/03/09 11:04:10;;;;;;;;;;;10.70;69.40;;;;;;5073231;28;19925;-60
2022/03/09 11:06:36;;;;;;;;;;;10.70;68.80;;;;;;5072805;28;20011;-65
2022/03/09 11:09:02;;;;;;;;;;;10.70;68.20;;;;;;5073546;28;20011;-59
2022/03/09 11:11:27;;;;;;;;;;;10.70;68.20;;;;;;5072180;28;19979;-61
2022/03/09 11:13:54;;;;;;;;;;;10.80;68.10;;;;;;5073486;28;19939;-62
2022/03/09 11:16:19;;;;;;;;;;;10.80;67.80;;;;;;5072788;28;19950;-60
2022/03/09 11:18:45;;;;;;;;;;;10.80;68.50;;;;;;5072703;28;20015;-60
2022/03/09 11:21:11;;;;;;;;;;;10.80;68.40;;;;;;5072332;28;19925;-61
2022/03/09 11:23:39;;;;;;;;;;;10.90;68.30;;;;;;5072778;28;19924;-59
2022/03/09 11:26:09;;;;;;;;;;;10.90;67.50;;;;;;5072080;28;19928;-60
2022/03/09 11:28:36;;;;;;;;;;;10.90;66.80;;;;;;5072744;28;19925;-62
2022/03/09 11:31:04;;;;;;;;;;;10.90;65.90;;;;;;5072966;28;19931;-60
2022/03/09 11:33:38;;;;;;;;;;;11.00;66.60;;;;;;5072647;28;19941;-60
2022/03/09 11:36:26;;;;;;;;;;;11.10;66.40;;;;;;5073039;28;19989;-60
2022/03/09 11:38:52;;;;;;;;;;;11.10;66.30;;;;;;5071751;28;19970;-61
2022/03/09 11:41:18;;;;;;;;;;;11.20;65.70;;;;;;5072840;28;19928;-62
2022/03/09 11:43:44;;;;;;;;;;;11.20;66.00;;;;;;5072829;28;20080;-63
2022/03/09 11:46:10;;;;;;;;;;;11.10;65.80;;;;;;5072749;28;20401;-60
2022/03/09 11:48:52;;;;;;;;;;;11.10;66.40;;;;;;5072279;28;19940;-60
2022/03/09 11:51:18;;;;;;;;;;;11.10;67.00;;;;;;5072445;28;19933;-61
2022/03/09 11:53:53;;;;;;;;;;;11.10;67.10;;;;;;5072703;28;19935;-61
2022/03/09 11:56:31;;;;;;;;;;;11.20;66.60;;;;;;5070641;28;20369;-61
2022/03/09 11:59:13;;;;;;;;;;;11.20;66.70;;;;;;5072267;28;19924;-60
2022/03/09 12:02:06;;;;;;;;;;;11.30;67.10;;;;;;5072517;28;19925;-62
2022/03/09 12:04:50;;;;;;;;;;;11.30;66.40;;;;;;5067755;28;20274;-60
2022/03/09 12:07:38;;;;;;;;;;;11.40;65.40;;;;;;5071241;28;19925;-59
2022/03/09 12:10:05;;;;;;;;;;;11.40;65.90;;;;;;5071585;28;19942;-60
2022/03/09 12:12:32;;;;;;;;;;;11.40;66.80;;;;;;5071934;28;20395;-61
2022/03/09 12:14:57;;;;;;;;;;;11.40;66.20;;;;;;5072132;28;20029;-62
2022/03/09 12:17:29;;;;;;;;;;;11.40;66.40;;;;;;5071523;28;19994;-60
2022/03/09 12:20:13;;;;;;;;;;;11.40;65.50;;;;;;5071706;28;19925;-61
2022/03/09 12:23:01;;;;;;;;;;;11.50;65.50;;;;;;5070872;28;19983;-65
2022/03/09 12:25:39;;;;;;;;;;;11.60;63.80;;;;;;5071661;28;19924;-61
2022/03/09 12:28:23;;;;;;;;;;;11.50;63.70;;;;;;5071796;28;19924;-61
2022/03/09 12:30:52;;;;;;;;;;;11.50;63.40;;;;;;5070999;28;19924;-60
2022/03/09 12:33:25;;;;;;;;;;;11.50;63.60;;;;;;5071991;28;20357;-61
2022/03/09 12:35:51;;;;;;;;;;;11.50;63.50;;;;;;5071967;28;19924;-60
2022/03/09 12:38:17;;;;;;;;;;;11.60;61.90;;;;;;5072190;28;19940;-61
2022/03/09 12:40:45;;;;;;;;;;;11.70;62.00;;;;;;5070352;28;19931;-59
2022/03/09 12:43:11;;;;;;;;;;;11.70;62.50;;;;;;5071687;28;20044;-62
2022/03/09 12:45:49;;;;;;;;;;;11.80;62.30;;;;;;5071449;28;19932;-61
2022/03/09 12:48:18;;;;;;;;;;;11.70;62.80;;;;;;5070844;28;19925;-62
2022/03/09 12:50:44;;;;;;;;;;;11.80;63.30;;;;;;5071426;28;19928;-62
2022/03/09 12:53:10;;;;;;;;;;;11.80;62.40;;;;;;5071734;28;19931;-62
2022/03/09 12:55:36;;;;;;;;;;;11.90;62.30;;;;;;5070136;28;19976;-63
2022/03/09 12:58:02;;;;;;;;;;;11.80;61.30;;;;;;5070847;28;19932;-63
2022/03/09 13:00:30;;;;;;;;;;;11.80;61.90;;;;;;5070110;28;19924;-64
2022/03/09 13:03:00;;;;;;;;;;;11.80;62.00;;;;;;5070527;28;19928;-62
2022/03/09 13:05:30;;;;;;;;;;;11.80;61.90;;;;;;5071797;28;19924;-69
2022/03/09 13:07:59;;;;;;;;;;;11.80;61.90;;;;;;5071006;28;19924;-61
2022/03/09 13:10:26;;;;;;;;;;;11.70;62.10;;;;;;5070548;28;20282;-61
2022/03/09 13:12:54;;;;;;;;;;;11.80;62.20;;;;;;5070195;28;20441;-61
2022/03/09 13:15:19;;;;;;;;;;;11.80;62.30;;;;;;5070713;28;19924;-62
2022/03/09 13:17:46;;;;;;;;;;;11.90;62.50;;;;;;5071136;28;20002;-62
2022/03/09 13:20:12;;;;;;;;;;;11.90;61.90;;;;;;5071442;28;19983;-61
2022/03/09 13:22:46;;;;;;;;;;;11.90;62.00;;;;;;5070932;28;19932;-62
2022/03/09 13:25:12;;;;;;;;;;;11.90;61.90;;;;;;5053879;28;19982;-62
2022/03/09 13:27:38;;;;;;;;;;;11.90;61.20;;;;;;5103424;28;19928;-62
2022/03/09 13:30:30;;;;;;;;;;;11.80;61.00;;;;;;5070332;28;20484;-62
2022/03/09 13:32:56;;;;;;;;;;;11.90;60.70;;;;;;5068806;28;19951;-63
2022/03/09 13:35:23;;;;;;;;;;;11.80;60.40;;;;;;5071438;28;19970;-62
2022/03/09 13:37:58;;;;;;;;;;;11.90;60.40;;;;;;5071058;28;19924;-62
2022/03/09 13:40:24;;;;;;;;;;;11.90;60.70;;;;;;5071332;28;19928;-62
2022/03/09 13:42:49;;;;;;;;;;;11.90;60.70;;;;;;5073675;28;20110;-63
2022/03/09 13:45:16;;;;;;;;;;;11.80;60.60;;;;;;5075452;28;19932;-62
2022/03/09 13:47:48;;;;;;;;;;;11.90;60.60;;;;;;5073099;28;19936;-62
2022/03/09 13:50:38;;;;;;;;;;;11.90;60.10;;;;;;5074789;28;20363;-62
2022/03/09 13:53:13;;;;;;;;;;;12.00;59.90;;;;;;5069174;28;19929;-61
2022/03/09 13:55:48;;;;;;;;;;;12.00;60.00;;;;;;5074012;28;19978;-63
2022/03/09 13:58:23;;;;;;;;;;;12.00;59.70;;;;;;5073621;28;19989;-62
2022/03/09 14:00:49;;;;;;;;;;;12.00;59.10;;;;;;5074756;28;19932;-59
2022/03/09 14:03:16;;;;;;;;;;;12.00;58.30;;;;;;5074604;28;19947;-64
2022/03/09 14:05:43;;;;;;;;;;;12.00;58.30;;;;;;5074408;28;19932;-67
2022/03/09 14:08:10;;;;;;;;;;;12.10;58.90;;;;;;5073084;28;19931;-61
2022/03/09 14:10:40;;;;;;;;;;;12.10;58.30;;;;;;5074089;28;19925;-69
2022/03/09 14:13:10;;;;;;;;;;;12.10;58.60;;;;;;5074036;28;19925;-61
2022/03/09 14:15:36;;;;;;;;;;;12.10;58.30;;;;;;5074388;28;19971;-69
2022/03/09 14:18:02;;;;;;;;;;;12.10;58.30;;;;;;5074276;28;19967;-64
2022/03/09 14:20:28;;;;;;;;;;;12.10;57.90;;;;;;5074544;28;19924;-61
2022/03/09 14:22:53;;;;;;;;;;;12.10;58.00;;;;;;5072818;28;19928;-60
2022/03/09 14:25:19;;;;;;;;;;;12.10;58.20;;;;;;5074217;28;19928;-60
2022/03/09 14:27:45;;;;;;;;;;;12.10;59.20;;;;;;5056129;28;19925;-61